sensor_id;sensor_type;location;lat;lon;timestamp;P1;durP1;ratioP1;P2;durP2;ratioP2
16760;SDS011;8498;52.516;13.790;2023-07-16T00:04:42;4.53;;;3.70;;
16760;SDS011;8498;52.516;13.790;2023-07-16T00:10:04;4.65;;;3.60;;
16760;SDS011;8498;52.516;13.790;2023-07-16T00:15:30;5.15;;;3.22;;
16760;SDS011;8498;52.516;13.790;2023-07-16T00:20:52;3.70;;;3.30;;
16760;SDS011;8498;52.516;13.790;2023-07-16T00:26:14;3.83;;;3.35;;
16760;SDS011;8498;52.516;13.790;2023-07-16T00:31:38;5.90;;;3.38;;
16760;SDS011;8498;52.516;13.790;2023-07-16T00:37:01;3.60;;;3.30;;
16760;SDS011;8498;52.516;13.790;2023-07-16T00:42:25;4.57;;;3.90;;
16760;SDS011;8498;52.516;13.790;2023-07-16T00:47:47;4.88;;;3.80;;
16760;SDS011;8498;52.516;13.790;2023-07-16T00:53:11;5.15;;;3.60;;
16760;SDS011;8498;52.516;13.790;2023-07-16T00:58:34;6.93;;;3.90;;
16760;SDS011;8498;52.516;13.790;2023-07-16T01:03:57;5.97;;;3.63;;
16760;SDS011;8498;52.516;13.790;2023-07-16T01:09:20;5.22;;;3.85;;
16760;SDS011;8498;52.516;13.790;2023-07-16T01:14:42;4.60;;;4.15;;
16760;SDS011;8498;52.516;13.790;2023-07-16T01:20:05;5.10;;;4.13;;
16760;SDS011;8498;52.516;13.790;2023-07-16T01:25:34;4.72;;;4.30;;
16760;SDS011;8498;52.516;13.790;2023-07-16T01:31:10;4.40;;;3.90;;
16760;SDS011;8498;52.516;13.790;2023-07-16T01:36:34;4.55;;;4.13;;
16760;SDS011;8498;52.516;13.790;2023-07-16T01:41:58;5.35;;;4.85;;
16760;SDS011;8498;52.516;13.790;2023-07-16T01:47:28;4.85;;;4.45;;
16760;SDS011;8498;52.516;13.790;2023-07-16T01:53:04;4.90;;;4.40;;
16760;SDS011;8498;52.516;13.790;2023-07-16T01:58:26;4.97;;;4.47;;
16760;SDS011;8498;52.516;13.790;2023-07-16T02:03:49;6.45;;;4.20;;
16760;SDS011;8498;52.516;13.790;2023-07-16T02:09:11;5.00;;;4.13;;
16760;SDS011;8498;52.516;13.790;2023-07-16T02:14:34;8.80;;;4.32;;
16760;SDS011;8498;52.516;13.790;2023-07-16T02:19:56;7.03;;;4.25;;
16760;SDS011;8498;52.516;13.790;2023-07-16T02:25:19;6.22;;;3.90;;
16760;SDS011;8498;52.516;13.790;2023-07-16T02:30:42;7.38;;;4.68;;
16760;SDS011;8498;52.516;13.790;2023-07-16T02:36:06;5.95;;;3.67;;
16760;SDS011;8498;52.516;13.790;2023-07-16T02:41:29;4.85;;;3.65;;
16760;SDS011;8498;52.516;13.790;2023-07-16T02:46:52;8.13;;;3.80;;
16760;SDS011;8498;52.516;13.790;2023-07-16T02:52:16;3.72;;;3.28;;
16760;SDS011;8498;52.516;13.790;2023-07-16T02:57:38;4.97;;;3.80;;
16760;SDS011;8498;52.516;13.790;2023-07-16T03:03:02;4.18;;;3.60;;
16760;SDS011;8498;52.516;13.790;2023-07-16T03:08:25;7.70;;;3.85;;
16760;SDS011;8498;52.516;13.790;2023-07-16T03:13:51;8.27;;;3.90;;
16760;SDS011;8498;52.516;13.790;2023-07-16T03:19:14;5.88;;;3.50;;
16760;SDS011;8498;52.516;13.790;2023-07-16T03:24:36;4.22;;;2.95;;
16760;SDS011;8498;52.516;13.790;2023-07-16T03:29:58;6.78;;;3.05;;
16760;SDS011;8498;52.516;13.790;2023-07-16T03:35:21;5.13;;;3.00;;
16760;SDS011;8498;52.516;13.790;2023-07-16T03:40:47;8.32;;;2.90;;
16760;SDS011;8498;52.516;13.790;2023-07-16T03:46:11;3.22;;;2.67;;
16760;SDS011;8498;52.516;13.790;2023-07-16T03:51:34;4.28;;;2.90;;
16760;SDS011;8498;52.516;13.790;2023-07-16T03:56:56;2.95;;;2.75;;
16760;SDS011;8498;52.516;13.790;2023-07-16T04:02:20;2.72;;;2.30;;
16760;SDS011;8498;52.516;13.790;2023-07-16T04:07:43;3.15;;;2.50;;
16760;SDS011;8498;52.516;13.790;2023-07-16T04:13:05;2.60;;;2.40;;
16760;SDS011;8498;52.516;13.790;2023-07-16T04:18:28;4.25;;;2.47;;
16760;SDS011;8498;52.516;13.790;2023-07-16T04:23:50;2.38;;;2.25;;
16760;SDS011;8498;52.516;13.790;2023-07-16T04:29:12;3.63;;;2.55;;
16760;SDS011;8498;52.516;13.790;2023-07-16T04:34:35;3.92;;;2.45;;
16760;SDS011;8498;52.516;13.790;2023-07-16T04:39:57;5.53;;;2.80;;
16760;SDS011;8498;52.516;13.790;2023-07-16T04:45:20;3.88;;;3.08;;
16760;SDS011;8498;52.516;13.790;2023-07-16T04:50:42;5.75;;;3.22;;
16760;SDS011;8498;52.516;13.790;2023-07-16T04:56:10;5.47;;;3.65;;
16760;SDS011;8498;52.516;13.790;2023-07-16T05:01:34;5.63;;;3.70;;
16760;SDS011;8498;52.516;13.790;2023-07-16T05:06:57;5.70;;;4.28;;
16760;SDS011;8498;52.516;13.790;2023-07-16T05:12:19;6.75;;;4.05;;
16760;SDS011;8498;52.516;13.790;2023-07-16T05:17:42;7.22;;;4.53;;
16760;SDS011;8498;52.516;13.790;2023-07-16T05:23:04;7.55;;;4.45;;
16760;SDS011;8498;52.516;13.790;2023-07-16T05:28:27;5.60;;;4.32;;
16760;SDS011;8498;52.516;13.790;2023-07-16T05:33:49;8.50;;;4.53;;
16760;SDS011;8498;52.516;13.790;2023-07-16T05:39:12;5.40;;;4.43;;
16760;SDS011;8498;52.516;13.790;2023-07-16T05:44:35;4.85;;;4.45;;
16760;SDS011;8498;52.516;13.790;2023-07-16T05:49:57;6.03;;;4.20;;
16760;SDS011;8498;52.516;13.790;2023-07-16T05:55:20;6.25;;;4.38;;
16760;SDS011;8498;52.516;13.790;2023-07-16T06:00:42;4.90;;;4.18;;
16760;SDS011;8498;52.516;13.790;2023-07-16T06:06:05;4.70;;;4.30;;
16760;SDS011;8498;52.516;13.790;2023-07-16T06:11:27;5.32;;;4.03;;
16760;SDS011;8498;52.516;13.790;2023-07-16T06:16:49;4.65;;;4.15;;
16760;SDS011;8498;52.516;13.790;2023-07-16T06:22:12;5.00;;;3.80;;
16760;SDS011;8498;52.516;13.790;2023-07-16T06:27:34;5.35;;;3.90;;
16760;SDS011;8498;52.516;13.790;2023-07-16T06:32:57;3.78;;;3.47;;
16760;SDS011;8498;52.516;13.790;2023-07-16T06:38:19;5.95;;;3.53;;
16760;SDS011;8498;52.516;13.790;2023-07-16T06:43:42;3.90;;;3.53;;
16760;SDS011;8498;52.516;13.790;2023-07-16T06:49:05;7.35;;;3.40;;
16760;SDS011;8498;52.516;13.790;2023-07-16T06:54:29;3.58;;;2.83;;
16760;SDS011;8498;52.516;13.790;2023-07-16T06:59:51;3.95;;;3.28;;
16760;SDS011;8498;52.516;13.790;2023-07-16T07:05:13;5.55;;;3.30;;
16760;SDS011;8498;52.516;13.790;2023-07-16T07:10:36;3.60;;;3.30;;
16760;SDS011;8498;52.516;13.790;2023-07-16T07:16:01;5.28;;;3.25;;
16760;SDS011;8498;52.516;13.790;2023-07-16T07:21:24;3.40;;;3.10;;
16760;SDS011;8498;52.516;13.790;2023-07-16T07:26:47;3.63;;;3.33;;
16760;SDS011;8498;52.516;13.790;2023-07-16T07:32:09;3.50;;;3.20;;
16760;SDS011;8498;52.516;13.790;2023-07-16T07:37:32;3.60;;;2.90;;
16760;SDS011;8498;52.516;13.790;2023-07-16T07:42:54;4.10;;;2.88;;
16760;SDS011;8498;52.516;13.790;2023-07-16T07:48:17;3.70;;;3.25;;
16760;SDS011;8498;52.516;13.790;2023-07-16T07:53:39;3.42;;;2.55;;
16760;SDS011;8498;52.516;13.790;2023-07-16T07:59:02;7.47;;;3.00;;
16760;SDS011;8498;52.516;13.790;2023-07-16T08:04:24;3.83;;;3.53;;
16760;SDS011;8498;52.516;13.790;2023-07-16T08:09:47;4.63;;;3.00;;
16760;SDS011;8498;52.516;13.790;2023-07-16T08:15:10;4.82;;;3.03;;
16760;SDS011;8498;52.516;13.790;2023-07-16T08:20:37;6.00;;;3.40;;
16760;SDS011;8498;52.516;13.790;2023-07-16T08:25:59;5.35;;;2.92;;
16760;SDS011;8498;52.516;13.790;2023-07-16T08:31:22;2.65;;;2.40;;
16760;SDS011;8498;52.516;13.790;2023-07-16T08:36:45;3.72;;;3.05;;
16760;SDS011;8498;52.516;13.790;2023-07-16T08:42:08;3.45;;;3.15;;
16760;SDS011;8498;52.516;13.790;2023-07-16T08:47:33;3.10;;;2.90;;
16760;SDS011;8498;52.516;13.790;2023-07-16T08:52:56;4.03;;;2.40;;
16760;SDS011;8498;52.516;13.790;2023-07-16T08:58:20;2.63;;;2.40;;
16760;SDS011;8498;52.516;13.790;2023-07-16T09:03:45;3.85;;;2.65;;
16760;SDS011;8498;52.516;13.790;2023-07-16T09:09:10;3.55;;;2.65;;
16760;SDS011;8498;52.516;13.790;2023-07-16T09:14:45;5.47;;;2.60;;
16760;SDS011;8498;52.516;13.790;2023-07-16T09:20:09;2.30;;;2.10;;
16760;SDS011;8498;52.516;13.790;2023-07-16T09:25:31;5.05;;;2.20;;
16760;SDS011;8498;52.516;13.790;2023-07-16T09:30:54;5.85;;;2.15;;
16760;SDS011;8498;52.516;13.790;2023-07-16T09:36:23;4.18;;;2.17;;
16760;SDS011;8498;52.516;13.790;2023-07-16T09:41:49;4.03;;;2.42;;
16760;SDS011;8498;52.516;13.790;2023-07-16T09:47:13;4.35;;;2.55;;
16760;SDS011;8498;52.516;13.790;2023-07-16T09:52:35;2.38;;;2.20;;
16760;SDS011;8498;52.516;13.790;2023-07-16T09:57:58;2.65;;;2.42;;
16760;SDS011;8498;52.516;13.790;2023-07-16T10:03:23;4.50;;;2.35;;
16760;SDS011;8498;52.516;13.790;2023-07-16T10:08:49;2.20;;;2.00;;
16760;SDS011;8498;52.516;13.790;2023-07-16T10:14:12;2.13;;;1.90;;
16760;SDS011;8498;52.516;13.790;2023-07-16T10:19:45;6.18;;;2.13;;
16760;SDS011;8498;52.516;13.790;2023-07-16T10:30:41;4.05;;;2.40;;
16760;SDS011;8498;52.516;13.790;2023-07-16T10:36:03;4.90;;;2.13;;
16760;SDS011;8498;52.516;13.790;2023-07-16T10:41:26;2.60;;;2.40;;
16760;SDS011;8498;52.516;13.790;2023-07-16T10:46:48;5.95;;;3.33;;
16760;SDS011;8498;52.516;13.790;2023-07-16T10:52:10;2.42;;;2.20;;
16760;SDS011;8498;52.516;13.790;2023-07-16T10:57:33;3.05;;;2.25;;
16760;SDS011;8498;52.516;13.790;2023-07-16T11:02:55;5.82;;;2.75;;
16760;SDS011;8498;52.516;13.790;2023-07-16T11:08:24;3.22;;;2.40;;
16760;SDS011;8498;52.516;13.790;2023-07-16T11:13:47;2.83;;;2.00;;
16760;SDS011;8498;52.516;13.790;2023-07-16T11:19:09;4.07;;;2.10;;
16760;SDS011;8498;52.516;13.790;2023-07-16T11:24:39;3.72;;;2.20;;
16760;SDS011;8498;52.516;13.790;2023-07-16T11:30:02;2.65;;;2.40;;
16760;SDS011;8498;52.516;13.790;2023-07-16T11:35:25;3.85;;;2.22;;
16760;SDS011;8498;52.516;13.790;2023-07-16T11:40:48;5.82;;;2.20;;
16760;SDS011;8498;52.516;13.790;2023-07-16T11:46:14;3.95;;;2.10;;
16760;SDS011;8498;52.516;13.790;2023-07-16T11:51:40;2.30;;;2.10;;
16760;SDS011;8498;52.516;13.790;2023-07-16T11:57:05;2.55;;;2.15;;
16760;SDS011;8498;52.516;13.790;2023-07-16T12:02:28;3.47;;;2.13;;
16760;SDS011;8498;52.516;13.790;2023-07-16T12:07:51;5.43;;;1.90;;
16760;SDS011;8498;52.516;13.790;2023-07-16T12:13:14;3.10;;;2.17;;
16760;SDS011;8498;52.516;13.790;2023-07-16T12:18:36;3.20;;;2.08;;
16760;SDS011;8498;52.516;13.790;2023-07-16T12:23:59;2.42;;;2.17;;
16760;SDS011;8498;52.516;13.790;2023-07-16T12:29:22;5.78;;;2.35;;
16760;SDS011;8498;52.516;13.790;2023-07-16T12:34:44;4.88;;;2.03;;
16760;SDS011;8498;52.516;13.790;2023-07-16T12:40:07;3.17;;;1.73;;
16760;SDS011;8498;52.516;13.790;2023-07-16T12:45:30;4.88;;;1.67;;
16760;SDS011;8498;52.516;13.790;2023-07-16T12:50:52;2.80;;;1.70;;
16760;SDS011;8498;52.516;13.790;2023-07-16T12:56:15;3.90;;;1.83;;
16760;SDS011;8498;52.516;13.790;2023-07-16T13:01:38;3.03;;;2.10;;
16760;SDS011;8498;52.516;13.790;2023-07-16T13:07:01;3.75;;;1.60;;
16760;SDS011;8498;52.516;13.790;2023-07-16T13:12:24;3.20;;;1.50;;
16760;SDS011;8498;52.516;13.790;2023-07-16T13:17:47;5.53;;;1.80;;
16760;SDS011;8498;52.516;13.790;2023-07-16T13:23:12;1.98;;;1.73;;
16760;SDS011;8498;52.516;13.790;2023-07-16T13:28:35;5.25;;;1.70;;
16760;SDS011;8498;52.516;13.790;2023-07-16T13:33:57;4.70;;;1.55;;
16760;SDS011;8498;52.516;13.790;2023-07-16T13:39:20;5.35;;;1.73;;
16760;SDS011;8498;52.516;13.790;2023-07-16T13:44:42;4.63;;;1.70;;
16760;SDS011;8498;52.516;13.790;2023-07-16T13:50:04;2.28;;;1.75;;
16760;SDS011;8498;52.516;13.790;2023-07-16T13:55:27;3.58;;;1.80;;
16760;SDS011;8498;52.516;13.790;2023-07-16T14:00:50;2.28;;;1.90;;
16760;SDS011;8498;52.516;13.790;2023-07-16T14:06:13;3.83;;;1.73;;
16760;SDS011;8498;52.516;13.790;2023-07-16T14:11:36;4.45;;;1.50;;
16760;SDS011;8498;52.516;13.790;2023-07-16T14:16:58;2.75;;;1.88;;
16760;SDS011;8498;52.516;13.790;2023-07-16T14:22:21;1.90;;;1.70;;
16760;SDS011;8498;52.516;13.790;2023-07-16T14:27:46;6.32;;;1.80;;
16760;SDS011;8498;52.516;13.790;2023-07-16T14:33:09;2.85;;;1.83;;
16760;SDS011;8498;52.516;13.790;2023-07-16T14:38:32;3.13;;;1.50;;
16760;SDS011;8498;52.516;13.790;2023-07-16T14:43:54;2.22;;;1.67;;
16760;SDS011;8498;52.516;13.790;2023-07-16T14:49:18;8.23;;;1.90;;
16760;SDS011;8498;52.516;13.790;2023-07-16T14:54:41;2.85;;;1.60;;
16760;SDS011;8498;52.516;13.790;2023-07-16T15:00:03;2.35;;;1.42;;
16760;SDS011;8498;52.516;13.790;2023-07-16T15:05:27;3.15;;;1.65;;
16760;SDS011;8498;52.516;13.790;2023-07-16T15:10:49;4.28;;;1.60;;
16760;SDS011;8498;52.516;13.790;2023-07-16T15:16:11;3.25;;;1.15;;
16760;SDS011;8498;52.516;13.790;2023-07-16T15:21:35;2.28;;;1.35;;
16760;SDS011;8498;52.516;13.790;2023-07-16T15:27:00;3.05;;;1.58;;
16760;SDS011;8498;52.516;13.790;2023-07-16T15:32:23;2.80;;;1.25;;
16760;SDS011;8498;52.516;13.790;2023-07-16T15:37:45;3.97;;;1.30;;
16760;SDS011;8498;52.516;13.790;2023-07-16T15:43:09;2.22;;;1.67;;
16760;SDS011;8498;52.516;13.790;2023-07-16T15:48:31;1.63;;;1.30;;
16760;SDS011;8498;52.516;13.790;2023-07-16T15:53:54;3.50;;;1.77;;
16760;SDS011;8498;52.516;13.790;2023-07-16T15:59:17;2.13;;;1.55;;
16760;SDS011;8498;52.516;13.790;2023-07-16T16:04:40;3.25;;;1.45;;
16760;SDS011;8498;52.516;13.790;2023-07-16T16:10:03;3.05;;;1.30;;
16760;SDS011;8498;52.516;13.790;2023-07-16T16:15:26;4.95;;;1.73;;
16760;SDS011;8498;52.516;13.790;2023-07-16T16:20:48;3.13;;;2.10;;
16760;SDS011;8498;52.516;13.790;2023-07-16T16:26:10;1.75;;;1.58;;
16760;SDS011;8498;52.516;13.790;2023-07-16T16:31:33;3.40;;;1.48;;
16760;SDS011;8498;52.516;13.790;2023-07-16T16:36:55;3.80;;;1.58;;
16760;SDS011;8498;52.516;13.790;2023-07-16T16:42:18;2.88;;;1.92;;
16760;SDS011;8498;52.516;13.790;2023-07-16T16:47:41;3.55;;;1.90;;
16760;SDS011;8498;52.516;13.790;2023-07-16T16:53:04;3.92;;;1.70;;
16760;SDS011;8498;52.516;13.790;2023-07-16T16:58:27;2.35;;;1.60;;
16760;SDS011;8498;52.516;13.790;2023-07-16T17:03:49;2.75;;;2.30;;
16760;SDS011;8498;52.516;13.790;2023-07-16T17:09:12;3.17;;;1.58;;
16760;SDS011;8498;52.516;13.790;2023-07-16T17:14:35;2.88;;;1.45;;
16760;SDS011;8498;52.516;13.790;2023-07-16T17:19:59;1.75;;;1.60;;
16760;SDS011;8498;52.516;13.790;2023-07-16T17:25:22;2.42;;;2.00;;
16760;SDS011;8498;52.516;13.790;2023-07-16T17:30:45;4.30;;;1.75;;
16760;SDS011;8498;52.516;13.790;2023-07-16T17:36:08;3.63;;;1.55;;
16760;SDS011;8498;52.516;13.790;2023-07-16T17:41:30;2.85;;;1.70;;
16760;SDS011;8498;52.516;13.790;2023-07-16T17:46:53;4.57;;;1.75;;
16760;SDS011;8498;52.516;13.790;2023-07-16T17:52:15;4.90;;;1.83;;
16760;SDS011;8498;52.516;13.790;2023-07-16T17:57:37;1.90;;;1.80;;
16760;SDS011;8498;52.516;13.790;2023-07-16T18:03:00;1.77;;;1.52;;
16760;SDS011;8498;52.516;13.790;2023-07-16T18:08:23;1.92;;;1.83;;
16760;SDS011;8498;52.516;13.790;2023-07-16T18:13:46;5.13;;;1.80;;
16760;SDS011;8498;52.516;13.790;2023-07-16T18:19:09;3.15;;;1.80;;
16760;SDS011;8498;52.516;13.790;2023-07-16T18:24:34;4.20;;;1.98;;
16760;SDS011;8498;52.516;13.790;2023-07-16T18:30:01;4.38;;;1.98;;
16760;SDS011;8498;52.516;13.790;2023-07-16T18:35:27;3.85;;;2.28;;
16760;SDS011;8498;52.516;13.790;2023-07-16T18:40:50;2.42;;;2.10;;
16760;SDS011;8498;52.516;13.790;2023-07-16T18:46:12;5.40;;;2.13;;
16760;SDS011;8498;52.516;13.790;2023-07-16T18:51:35;3.78;;;2.03;;
16760;SDS011;8498;52.516;13.790;2023-07-16T18:56:58;3.67;;;2.10;;
16760;SDS011;8498;52.516;13.790;2023-07-16T19:02:24;3.55;;;2.10;;
16760;SDS011;8498;52.516;13.790;2023-07-16T19:07:47;4.88;;;1.90;;
16760;SDS011;8498;52.516;13.790;2023-07-16T19:13:10;4.68;;;2.47;;
16760;SDS011;8498;52.516;13.790;2023-07-16T19:18:34;3.70;;;1.92;;
16760;SDS011;8498;52.516;13.790;2023-07-16T19:23:58;2.13;;;1.90;;
16760;SDS011;8498;52.516;13.790;2023-07-16T19:29:21;4.80;;;2.35;;
16760;SDS011;8498;52.516;13.790;2023-07-16T19:34:43;3.70;;;2.50;;
16760;SDS011;8498;52.516;13.790;2023-07-16T19:40:07;8.30;;;2.60;;
16760;SDS011;8498;52.516;13.790;2023-07-16T19:45:32;6.30;;;2.40;;
16760;SDS011;8498;52.516;13.790;2023-07-16T19:50:55;3.97;;;2.63;;
16760;SDS011;8498;52.516;13.790;2023-07-16T19:56:18;4.03;;;2.30;;
16760;SDS011;8498;52.516;13.790;2023-07-16T20:01:44;6.80;;;2.97;;
16760;SDS011;8498;52.516;13.790;2023-07-16T20:07:07;3.50;;;2.70;;
16760;SDS011;8498;52.516;13.790;2023-07-16T20:12:35;5.65;;;2.83;;
16760;SDS011;8498;52.516;13.790;2023-07-16T20:18:01;6.03;;;2.63;;
16760;SDS011;8498;52.516;13.790;2023-07-16T20:23:27;3.53;;;2.78;;
16760;SDS011;8498;52.516;13.790;2023-07-16T20:28:50;3.38;;;2.90;;
16760;SDS011;8498;52.516;13.790;2023-07-16T20:34:12;7.75;;;2.72;;
16760;SDS011;8498;52.516;13.790;2023-07-16T20:39:35;6.38;;;2.90;;
16760;SDS011;8498;52.516;13.790;2023-07-16T20:45:11;6.50;;;2.75;;
16760;SDS011;8498;52.516;13.790;2023-07-16T20:50:40;5.53;;;3.22;;
16760;SDS011;8498;52.516;13.790;2023-07-16T20:56:05;3.60;;;2.90;;
16760;SDS011;8498;52.516;13.790;2023-07-16T21:01:28;3.65;;;3.10;;
16760;SDS011;8498;52.516;13.790;2023-07-16T21:06:51;6.97;;;3.20;;
16760;SDS011;8498;52.516;13.790;2023-07-16T21:12:13;5.97;;;2.95;;
16760;SDS011;8498;52.516;13.790;2023-07-16T21:17:36;5.30;;;3.20;;
16760;SDS011;8498;52.516;13.790;2023-07-16T21:22:59;4.45;;;3.05;;
16760;SDS011;8498;52.516;13.790;2023-07-16T21:28:22;4.25;;;3.15;;
16760;SDS011;8498;52.516;13.790;2023-07-16T21:33:44;4.57;;;3.47;;
16760;SDS011;8498;52.516;13.790;2023-07-16T21:39:07;3.83;;;3.13;;
16760;SDS011;8498;52.516;13.790;2023-07-16T21:44:29;5.78;;;3.63;;
16760;SDS011;8498;52.516;13.790;2023-07-16T21:49:52;5.22;;;3.50;;
16760;SDS011;8498;52.516;13.790;2023-07-16T21:55:15;6.13;;;3.30;;
16760;SDS011;8498;52.516;13.790;2023-07-16T22:00:38;3.42;;;3.05;;
16760;SDS011;8498;52.516;13.790;2023-07-16T22:06:01;6.30;;;3.25;;
16760;SDS011;8498;52.516;13.790;2023-07-16T22:11:24;8.77;;;3.50;;
16760;SDS011;8498;52.516;13.790;2023-07-16T22:16:46;3.67;;;3.15;;
16760;SDS011;8498;52.516;13.790;2023-07-16T22:22:09;3.42;;;3.13;;
16760;SDS011;8498;52.516;13.790;2023-07-16T22:27:31;6.82;;;3.40;;
16760;SDS011;8498;52.516;13.790;2023-07-16T22:32:54;4.75;;;3.38;;
16760;SDS011;8498;52.516;13.790;2023-07-16T22:38:17;6.75;;;2.95;;
16760;SDS011;8498;52.516;13.790;2023-07-16T22:43:40;4.45;;;3.60;;
16760;SDS011;8498;52.516;13.790;2023-07-16T22:49:02;6.07;;;3.80;;
16760;SDS011;8498;52.516;13.790;2023-07-16T22:54:28;3.72;;;3.15;;
16760;SDS011;8498;52.516;13.790;2023-07-16T22:59:51;3.80;;;3.35;;
16760;SDS011;8498;52.516;13.790;2023-07-16T23:05:13;7.43;;;3.70;;
16760;SDS011;8498;52.516;13.790;2023-07-16T23:10:35;6.85;;;3.67;;
16760;SDS011;8498;52.516;13.790;2023-07-16T23:15:58;6.28;;;3.50;;
16760;SDS011;8498;52.516;13.790;2023-07-16T23:21:20;6.03;;;3.80;;
16760;SDS011;8498;52.516;13.790;2023-07-16T23:26:43;4.88;;;3.47;;
16760;SDS011;8498;52.516;13.790;2023-07-16T23:32:05;5.25;;;3.60;;
16760;SDS011;8498;52.516;13.790;2023-07-16T23:37:28;4.00;;;3.53;;
16760;SDS011;8498;52.516;13.790;2023-07-16T23:42:51;5.75;;;4.05;;
16760;SDS011;8498;52.516;13.790;2023-07-16T23:48:13;6.10;;;4.03;;
16760;SDS011;8498;52.516;13.790;2023-07-16T23:53:36;6.90;;;4.10;;
16760;SDS011;8498;52.516;13.790;2023-07-16T23:58:58;5.53;;;3.75;;
